Time;durP1;ratioP1;P1;durP2;ratioP2;P2;SDS_P1;SDS_P2;PMS_P1;PMS_P2;Temp;Humidity;BMP_temperature;BMP_pressure;BME280_temperature;BME280_humidity;BME280_pressure;Samples;Min_cycle;Max_cycle;Signal;HPM_P1;HPM_P2
2023/06/14 00:00:52;;;;;;;6.17;4.27;;;;;;;17.83;43.43;98527.69;5081958;27;40328;-77
2023/06/14 00:03:21;;;;;;;7.10;4.50;;;;;;;17.78;43.71;98536.19;5134002;27;41290;-76
2023/06/14 00:05:49;;;;;;;6.43;4.30;;;;;;;17.70;44.14;98520.00;5115837;27;41816;-77
2023/06/14 00:08:21;;;;;;;6.70;4.97;;;;;;;17.71;44.67;98520.84;5098318;27;41246;-77
2023/06/14 00:10:48;;;;;;;5.20;4.60;;;;;;;17.57;44.59;98509.59;5116210;27;39262;-77
2023/06/14 00:13:16;;;;;;;4.53;4.13;;;;;;;17.67;44.40;98525.66;5114196;27;40678;-77
2023/06/14 00:15:44;;;;;;;5.23;4.50;;;;;;;17.62;44.77;98527.91;5114289;27;43214;-77
2023/06/14 00:18:12;;;;;;;4.83;4.23;;;;;;;17.59;44.78;98512.97;5098363;27;41645;-77
2023/06/14 00:20:42;;;;;;;5.37;4.63;;;;;;;17.39;44.81;98489.97;5134020;27;40367;-77
2023/06/14 00:23:10;;;;;;;4.70;4.30;;;;;;;17.55;44.76;98516.97;5115867;27;41578;-77
2023/06/14 00:25:39;;;;;;;4.50;4.10;;;;;;;17.47;45.32;98503.44;5098240;27;43042;-77
2023/06/14 00:28:07;;;;;;;5.17;4.40;;;;;;;17.49;45.02;98519.38;5134331;27;42188;-77
2023/06/14 00:30:36;;;;;;;4.53;3.93;;;;;;;17.46;45.24;98515.13;5115333;27;38980;-77
2023/06/14 00:33:04;;;;;;;5.97;4.20;;;;;;;17.43;45.06;98518.09;5134464;27;42740;-77
2023/06/14 00:35:32;;;;;;;7.20;4.50;;;;;;;17.35;45.33;98512.66;5098951;27;42770;-77
2023/06/14 00:38:01;;;;;;;5.43;4.93;;;;;;;17.33;45.36;98506.59;5116718;27;42417;-76
2023/06/14 00:40:29;;;;;;;4.80;4.23;;;;;;;17.35;46.15;98518.00;5116513;27;40879;-77
2023/06/14 00:42:58;;;;;;;4.67;4.03;;;;;;;17.32;45.95;98510.25;5082455;27;41183;-76
2023/06/14 00:45:26;;;;;;;5.07;4.57;;;;;;;17.33;45.63;98514.63;5098912;27;42852;-76
2023/06/14 00:47:55;;;;;;;5.13;4.20;;;;;;;17.22;45.79;98498.75;5099284;27;42128;-76
2023/06/14 00:50:23;;;;;;;5.67;4.77;;;;;;;17.28;45.95;98508.88;5098900;27;40271;-77
2023/06/14 00:52:56;;;;;;;4.77;4.30;;;;;;;17.26;45.84;98507.34;5134756;27;41700;-77
2023/06/14 00:55:23;;;;;;;4.30;3.90;;;;;;;17.23;46.57;98511.16;5134483;27;42733;-77
2023/06/14 00:57:51;;;;;;;6.93;4.47;;;;;;;17.20;46.30;98512.28;5082230;27;41658;-76
2023/06/14 01:00:21;;;;;;;5.20;4.70;;;;;;;17.16;46.00;98504.72;5115049;27;41201;-78
2023/06/14 01:02:49;;;;;;;4.73;3.87;;;;;;;17.15;46.93;98513.72;5114539;27;41740;-77
2023/06/14 01:05:18;;;;;;;7.13;4.37;;;;;;;17.10;46.69;98500.75;5097814;27;41638;-78
2023/06/14 01:08:07;;;;;;;4.80;4.40;;;;;;;17.08;47.10;98501.91;5098137;27;41933;-77
2023/06/14 01:10:44;;;;;;;4.97;4.57;;;;;;;17.04;46.76;98500.53;5097882;27;40329;-77
2023/06/14 01:13:20;;;;;;;6.00;4.37;;;;;;;17.00;46.82;98509.81;5098264;27;40588;-77
2023/06/14 01:15:51;;;;;;;4.40;4.03;;;;;;;16.89;46.83;98494.78;5115344;27;41962;-76
2023/06/14 01:18:19;;;;;;;5.63;5.13;;;;;;;16.87;47.44;98505.63;5115040;27;41425;-77
2023/06/14 01:20:49;;;;;;;7.50;4.67;;;;;;;16.81;47.45;98492.81;5114740;27;39935;-76
2023/06/14 01:23:20;;;;;;;6.20;4.27;;;;;;;16.82;47.25;98505.19;5097505;27;40820;-77
2023/06/14 01:25:52;;;;;;;8.00;5.13;;;;;;;16.78;47.79;98495.78;5097837;27;41611;-77
2023/06/14 01:28:21;;;;;;;6.37;4.60;;;;;;;16.77;47.69;98499.44;5097960;27;42521;-77
2023/06/14 01:30:53;;;;;;;5.20;4.17;;;;;;;16.75;48.00;98498.75;5097880;27;38858;-77
2023/06/14 01:33:23;;;;;;;4.57;4.17;;;;;;;16.75;48.11;98490.72;5097849;27;40853;-76
2023/06/14 01:35:52;;;;;;;5.20;4.23;;;;;;;16.68;47.91;98478.94;5115466;27;43755;-76
2023/06/14 01:38:25;;;;;;;4.53;4.13;;;;;;;16.61;48.10;98469.75;5098130;27;40812;-76
2023/06/14 01:40:55;;;;;;;4.57;4.10;;;;;;;16.70;47.79;98494.78;5098659;27;39768;-77
2023/06/14 01:43:24;;;;;;;4.43;4.00;;;;;;;16.68;48.13;98481.59;5098445;27;41788;-77
2023/06/14 01:45:54;;;;;;;4.67;4.17;;;;;;;16.66;47.95;98486.25;5115436;27;41689;-77
2023/06/14 01:48:22;;;;;;;4.40;3.97;;;;;;;16.61;48.06;98493.81;5097998;27;42780;-77
2023/06/14 01:50:50;;;;;;;5.93;3.97;;;;;;;16.60;48.19;98492.09;5115394;27;39938;-77
2023/06/14 01:53:17;;;;;;;5.57;4.87;;;;;;;16.55;48.65;98485.53;5115427;27;41219;-76
2023/06/14 01:55:48;;;;;;;5.20;4.10;;;;;;;16.52;48.53;98489.31;5133661;27;43908;-77
2023/06/14 01:58:17;;;;;;;6.83;4.10;;;;;;;16.49;48.48;98486.91;5114809;27;42172;-77
2023/06/14 02:00:45;;;;;;;6.20;5.10;;;;;;;16.44;49.12;98486.53;5098354;27;39530;-76
2023/06/14 02:03:13;;;;;;;4.93;4.50;;;;;;;16.42;49.62;98478.63;5113301;27;41773;-77
2023/06/14 02:05:41;;;;;;;6.30;4.83;;;;;;;16.38;49.63;98481.72;5114052;27;42646;-77
2023/06/14 02:08:09;;;;;;;8.47;4.50;;;;;;;16.23;49.32;98461.75;5114414;27;41644;-77
2023/06/14 02:10:39;;;;;;;4.53;4.13;;;;;;;16.31;49.74;98469.94;5114120;27;39919;-77
2023/06/14 02:13:08;;;;;;;5.23;4.33;;;;;;;16.08;49.98;98448.81;5096734;27;40856;-76
2023/06/14 02:15:36;;;;;;;4.93;4.43;;;;;;;16.29;49.68;98479.91;5132412;27;42864;-78
2023/06/14 02:18:05;;;;;;;6.37;4.20;;;;;;;16.03;49.79;98452.91;5132641;27;43190;-77
2023/06/14 02:20:35;;;;;;;6.13;4.50;;;;;;;16.23;50.26;98485.78;5096863;27;39789;-77
2023/06/14 02:23:03;;;;;;;6.37;4.70;;;;;;;16.19;50.33;98487.09;5114170;27;41668;-77
2023/06/14 02:25:33;;;;;;;5.13;4.67;;;;;;;16.23;50.35;98493.81;5113513;27;41927;-77
2023/06/14 02:28:00;;;;;;;5.67;4.43;;;;;;;16.12;50.06;98486.78;5114153;27;41940;-77
2023/06/14 02:30:32;;;;;;;5.40;4.63;;;;;;;16.19;50.24;98497.78;5096883;27;40015;-77
2023/06/14 02:33:00;;;;;;;5.43;4.87;;;;;;;16.15;50.49;98503.38;5097468;27;41848;-77
2023/06/14 02:35:28;;;;;;;5.50;5.00;;;;;;;16.03;50.35;98485.78;5097699;27;43019;-77
2023/06/14 02:37:57;;;;;;;5.00;4.50;;;;;;;16.10;50.07;98505.63;5114960;27;41298;-77
2023/06/14 02:40:25;;;;;;;5.17;4.23;;;;;;;16.07;50.18;98511.22;5114473;27;40159;-77
2023/06/14 02:42:53;;;;;;;6.77;4.93;;;;;;;16.09;50.51;98513.75;5097720;27;41723;-76
2023/06/14 02:45:20;;;;;;;5.53;4.27;;;;;;;16.07;50.72;98516.56;5097169;27;42340;-76
2023/06/14 02:47:51;;;;;;;5.23;4.70;;;;;;;16.03;50.40;98515.19;5114674;27;42467;-76
2023/06/14 02:50:21;;;;;;;5.50;4.83;;;;;;;15.84;50.22;98485.75;5080724;27;39859;-77
2023/06/14 02:52:49;;;;;;;5.87;4.63;;;;;;;16.00;50.91;98511.94;5114735;27;41887;-77
2023/06/14 02:55:17;;;;;;;5.80;4.53;;;;;;;15.93;51.02;98506.31;5097052;27;42179;-76
2023/06/14 02:57:47;;;;;;;4.63;4.00;;;;;;;15.82;50.81;98490.41;5097441;27;41553;-77
2023/06/14 03:00:16;;;;;;;5.37;4.87;;;;;;;15.90;50.88;98506.59;5097298;27;40032;-77
2023/06/14 03:02:45;;;;;;;7.17;4.30;;;;;;;15.92;51.10;98512.63;5096096;27;40876;-77
2023/06/14 03:05:14;;;;;;;6.73;4.17;;;;;;;15.89;51.29;98523.59;5095838;27;43236;-77
2023/06/14 03:07:44;;;;;;;4.33;3.97;;;;;;;15.86;51.32;98513.16;5113524;27;42908;-78
2023/06/14 03:10:13;;;;;;;4.67;4.27;;;;;;;15.77;51.02;98514.00;5113315;27;39188;-78
2023/06/14 03:12:44;;;;;;;8.47;4.50;;;;;;;15.82;51.11;98525.13;5080053;27;40566;-78
2023/06/14 03:15:14;;;;;;;7.47;4.63;;;;;;;15.75;51.11;98521.28;5113344;27;43064;-78
2023/06/14 03:17:46;;;;;;;5.53;4.97;;;;;;;15.74;51.93;98525.78;5096606;27;42316;-77
2023/06/14 03:20:17;;;;;;;5.60;4.60;;;;;;;15.69;51.60;98528.03;5095947;27;39131;-77
2023/06/14 03:22:47;;;;;;;5.80;5.20;;;;;;;15.61;51.84;98519.84;5097784;27;40381;-77
2023/06/14 03:25:15;;;;;;;8.47;5.00;;;;;;;15.69;51.60;98527.19;5099350;27;44940;-77
2023/06/14 03:27:45;;;;;;;6.33;4.73;;;;;;;15.68;51.85;98537.03;5099890;27;43537;-77
2023/06/14 03:30:14;;;;;;;5.00;4.57;;;;;;;15.56;52.07;98522.09;5116579;27;40758;-76
2023/06/14 03:32:45;;;;;;;5.63;4.53;;;;;;;15.50;51.85;98513.72;5099942;27;41166;-77
2023/06/14 03:35:16;;;;;;;5.10;4.30;;;;;;;15.54;51.72;98525.84;5100288;27;42498;-76
2023/06/14 03:37:49;;;;;;;5.13;4.70;;;;;;;15.62;52.36;98537.56;5117432;27;42298;-77
2023/06/14 03:40:20;;;;;;;5.97;5.17;;;;;;;15.59;52.71;98540.47;5083346;27;38912;-77
2023/06/14 03:42:50;;;;;;;6.30;5.10;;;;;;;15.57;52.25;98533.63;5100555;27;42977;-77
2023/06/14 03:45:20;;;;;;;5.43;4.90;;;;;;;15.62;52.37;98542.03;5135446;27;42870;-77
2023/06/14 03:47:50;;;;;;;5.00;4.43;;;;;;;15.55;52.22;98530.22;5100460;27;41581;-76
2023/06/14 03:50:18;;;;;;;7.37;4.47;;;;;;;15.65;52.20;98547.13;5117476;27;39814;-76
2023/06/14 03:52:50;;;;;;;7.77;4.47;;;;;;;15.70;51.95;98558.25;5117717;27;41810;-77
2023/06/14 03:55:19;;;;;;;6.30;4.90;;;;;;;15.74;52.14;98562.31;5067131;27;43070;-77
2023/06/14 03:57:46;;;;;;;4.87;4.37;;;;;;;15.76;52.14;98565.72;5099995;27;41176;-78
2023/06/14 04:00:18;;;;;;;5.20;4.70;;;;;;;15.79;51.72;98570.78;5098307;27;39171;-77
2023/06/14 04:02:46;;;;;;;4.67;4.27;;;;;;;15.83;51.60;98577.53;5099033;27;42095;-77
2023/06/14 04:05:16;;;;;;;5.57;4.53;;;;;;;15.87;51.76;98578.94;5115922;27;43280;-77
2023/06/14 04:07:50;;;;;;;5.40;4.83;;;;;;;15.88;52.11;98577.97;5098866;27;41781;-77
2023/06/14 04:10:20;;;;;;;5.03;4.63;;;;;;;15.95;52.04;98587.13;5134378;27;39854;-76
2023/06/14 04:12:48;;;;;;;5.33;4.80;;;;;;;16.01;52.06;98591.94;5098890;27;40709;-77
2023/06/14 04:15:15;;;;;;;5.90;4.77;;;;;;;16.02;52.37;98593.63;5098764;27;41894;-77
2023/06/14 04:17:43;;;;;;;5.17;4.67;;;;;;;16.11;52.26;98598.13;5098765;27;41140;-77
2023/06/14 04:20:11;;;;;;;5.93;4.77;;;;;;;16.16;52.33;98595.91;5115635;27;40194;-77
2023/06/14 04:22:40;;;;;;;7.57;5.33;;;;;;;16.19;52.49;98593.94;5098734;27;42269;-77
2023/06/14 04:25:11;;;;;;;5.50;4.77;;;;;;;16.23;52.23;98595.34;5098119;27;43073;-77
2023/06/14 04:27:41;;;;;;;5.97;4.87;;;;;;;16.27;51.94;98608.31;5112457;27;42274;-77
2023/06/14 04:30:09;;;;;;;6.07;4.70;;;;;;;16.35;52.28;98610.28;5098501;27;41631;-77
2023/06/14 04:32:42;;;;;;;7.40;4.90;;;;;;;16.37;52.03;98617.19;5098598;27;41893;-77
2023/06/14 04:35:13;;;;;;;6.53;4.33;;;;;;;16.42;52.04;98622.13;5115308;27;44407;-77
2023/06/14 04:37:45;;;;;;;6.60;4.90;;;;;;;16.37;52.04;98597.63;5099342;27;41286;-77
2023/06/14 04:40:15;;;;;;;4.93;4.47;;;;;;;16.54;52.25;98610.31;5099221;27;38816;-77
2023/06/14 04:42:44;;;;;;;5.90;5.03;;;;;;;16.56;51.83;98610.19;5113631;27;43189;-77
2023/06/14 04:45:15;;;;;;;6.53;4.63;;;;;;;16.66;51.30;98627.94;5115955;27;42058;-77
2023/06/14 04:47:43;;;;;;;5.20;4.70;;;;;;;16.72;51.46;98631.88;5116600;27;42251;-76
2023/06/14 04:50:12;;;;;;;6.60;5.03;;;;;;;16.75;51.76;98624.44;5114319;27;40085;-77
2023/06/14 04:52:42;;;;;;;5.50;5.00;;;;;;;16.73;51.98;98625.56;5097891;27;41085;-77
2023/06/14 04:55:11;;;;;;;7.30;5.20;;;;;;;16.76;51.85;98609.22;5098102;27;42104;-76
2023/06/14 04:57:41;;;;;;;5.23;4.73;;;;;;;16.98;51.78;98629.50;5098352;27;42261;-77
2023/06/14 05:00:11;;;;;;;5.27;4.80;;;;;;;17.06;51.22;98627.78;5114918;27;40052;-77
2023/06/14 05:02:40;;;;;;;6.30;5.10;;;;;;;17.17;51.66;98629.50;5098226;27;41780;-77
2023/06/14 05:05:08;;;;;;;4.80;4.33;;;;;;;17.24;51.02;98625.25;5115107;27;42847;-77
2023/06/14 05:07:36;;;;;;;5.53;4.97;;;;;;;17.37;51.03;98636.50;5114998;27;43268;-76
2023/06/14 05:10:05;;;;;;;5.03;4.53;;;;;;;17.43;50.46;98633.22;5097781;27;40202;-76
2023/06/14 05:12:34;;;;;;;5.93;5.27;;;;;;;17.54;50.56;98633.09;5115122;27;42688;-77
2023/06/14 05:15:04;;;;;;;4.87;4.40;;;;;;;17.66;50.65;98635.63;5097565;27;41663;-77
2023/06/14 05:17:32;;;;;;;6.00;5.30;;;;;;;17.69;50.15;98633.47;5097543;27;42547;-77
2023/06/14 05:20:00;;;;;;;5.77;4.97;;;;;;;17.78;49.58;98632.63;5114928;27;40869;-77
2023/06/14 05:22:28;;;;;;;5.33;4.33;;;;;;;17.94;49.85;98634.63;5114966;27;40924;-77
2023/06/14 05:24:55;;;;;;;8.63;5.40;;;;;;;18.04;49.74;98640.81;5097504;27;43714;-77
2023/06/14 05:27:24;;;;;;;5.93;5.30;;;;;;;18.13;49.42;98645.28;5133654;27;41649;-78
2023/06/14 05:29:55;;;;;;;8.40;5.57;;;;;;;18.18;49.17;98653.72;5114529;27;38907;-77
2023/06/14 05:32:24;;;;;;;7.10;5.23;;;;;;;18.09;48.52;98621.59;5097637;27;41816;-77
2023/06/14 05:34:52;;;;;;;6.23;4.80;;;;;;;18.46;48.99;98661.75;5101282;27;44797;-75
2023/06/14 05:37:20;;;;;;;6.80;4.90;;;;;;;18.54;48.52;98657.34;5114788;27;42783;-81
2023/06/14 05:40:00;;;;;;;5.43;4.67;;;;;;;18.64;47.96;98670.72;5114438;27;41151;-78
2023/06/14 05:47:59;;;;;;;6.40;4.53;;;;;;;18.83;48.19;98675.94;5112376;27;44458;-77
2023/06/14 05:50:28;;;;;;;5.00;4.50;;;;;;;18.95;47.88;98674.72;5148675;27;42385;-77
2023/06/14 05:52:56;;;;;;;5.27;4.77;;;;;;;19.01;47.91;98676.81;5154418;27;39873;-80
2023/06/14 05:55:23;;;;;;;7.33;4.57;;;;;;;19.14;47.27;98672.88;5152441;27;41743;-78
2023/06/14 05:57:51;;;;;;;4.70;4.30;;;;;;;19.28;47.23;98675.03;5153060;27;42257;-77
2023/06/14 06:00:20;;;;;;;4.97;4.57;;;;;;;19.43;46.81;98675.28;5152385;27;43318;-77
2023/06/14 06:02:48;;;;;;;5.83;5.30;;;;;;;19.51;46.92;98678.94;5151986;27;40194;-81
2023/06/14 06:05:16;;;;;;;6.73;4.60;;;;;;;19.64;46.73;98671.31;5133935;27;41971;-79
2023/06/14 06:07:46;;;;;;;5.07;4.63;;;;;;;19.83;46.99;98674.75;5152069;27;42485;-82
2023/06/14 06:10:13;;;;;;;5.20;4.70;;;;;;;19.96;46.43;98667.97;5152500;27;43307;-82
2023/06/14 06:12:42;;;;;;;6.17;4.73;;;;;;;20.08;46.19;98679.28;5153720;27;40857;-81
2023/06/14 06:15:11;;;;;;;4.93;4.43;;;;;;;20.15;45.32;98669.59;5151403;27;42029;-80
2023/06/14 06:17:39;;;;;;;5.50;4.87;;;;;;;20.32;44.73;98692.00;5152129;27;42797;-80
2023/06/14 06:20:08;;;;;;;4.87;4.47;;;;;;;20.35;44.79;98681.81;5151247;27;43575;-82
2023/06/14 06:22:35;;;;;;;6.00;4.43;;;;;;;20.41;44.21;98681.13;5134500;27;39782;-78
2023/06/14 06:25:06;;;;;;;6.10;4.50;;;;;;;20.68;44.18;98704.28;5164631;27;41713;-78
2023/06/14 06:27:35;;;;;;;7.50;5.30;;;;;;;20.83;43.77;98712.56;5172089;27;42694;-75
2023/06/14 06:30:03;;;;;;;5.83;5.00;;;;;;;20.93;43.91;98715.09;5157745;27;43566;-77
2023/06/14 06:32:31;;;;;;;7.00;4.90;;;;;;;21.02;43.90;98712.25;5133825;27;40128;-74
2023/06/14 06:34:59;;;;;;;5.13;4.60;;;;;;;21.14;43.89;98721.69;5134074;27;40643;-77
2023/06/14 06:37:27;;;;;;;6.10;4.00;;;;;;;21.25;43.15;98717.91;5134431;27;41691;-76
2023/06/14 06:39:55;;;;;;;4.93;4.43;;;;;;;21.50;42.78;98724.16;5113227;27;42188;-75
2023/06/14 06:42:24;;;;;;;5.83;4.83;;;;;;;21.78;42.27;98735.41;5114233;27;39930;-79
2023/06/14 06:45:31;;;;;;;6.57;4.37;;;;;;;22.09;42.50;98739.13;5099776;27;40986;-77
2023/06/14 06:47:59;;;;;;;5.10;4.60;;;;;;;22.19;41.35;98744.31;5095648;27;41718;-79
2023/06/14 06:50:28;;;;;;;6.23;4.70;;;;;;;22.23;41.20;98740.25;5093355;28;42450;-77
2023/06/14 06:52:57;;;;;;;9.30;4.80;;;;;;;22.28;41.23;98745.97;5091522;28;39831;-78
2023/06/14 06:55:24;;;;;;;4.83;4.43;;;;;;;22.28;41.11;98748.66;5124482;27;41673;-79
2023/06/14 06:57:53;;;;;;;4.93;4.30;;;;;;;22.36;41.32;98745.97;5127913;27;42430;-76
2023/06/14 07:00:21;;;;;;;5.33;4.83;;;;;;;22.44;40.72;98747.78;5128044;27;42625;-76
2023/06/14 07:02:49;;;;;;;5.97;5.47;;;;;;;22.48;40.54;98755.38;5111431;27;41766;-75
2023/06/14 07:05:17;;;;;;;5.30;4.80;;;;;;;22.59;40.43;98756.84;5090901;28;40819;-77
2023/06/14 07:07:44;;;;;;;6.30;4.97;;;;;;;22.69;40.13;98762.03;5091495;28;41956;-81
2023/06/14 07:10:12;;;;;;;6.90;4.60;;;;;;;22.80;40.02;98751.72;5122867;27;42052;-79
2023/06/14 07:12:40;;;;;;;5.17;4.57;;;;;;;22.98;40.16;98756.03;5111936;27;39961;-78
2023/06/14 07:15:11;;;;;;;5.07;4.57;;;;;;;23.09;39.12;98761.03;5114262;27;41688;-77
2023/06/14 07:17:38;;;;;;;6.73;4.93;;;;;;;23.24;39.03;98767.38;5151416;27;43443;-80
2023/06/14 07:20:13;;;;;;;5.33;4.83;;;;;;;23.34;39.11;98759.88;5133321;27;41401;-78
2023/06/14 07:22:42;;;;;;;4.70;4.30;;;;;;;23.53;39.51;98755.84;5151150;27;40041;-83
2023/06/14 07:25:13;;;;;;;5.03;4.40;;;;;;;23.70;39.04;98757.44;5150347;27;41062;-79
2023/06/14 07:27:40;;;;;;;4.90;4.27;;;;;;;23.83;38.54;98760.34;5149890;27;43808;-77
2023/06/14 07:30:11;;;;;;;5.63;4.67;;;;;;;23.97;37.67;98770.38;5132924;27;41126;-79
2023/06/14 07:32:39;;;;;;;5.70;5.00;;;;;;;24.23;37.49;98777.25;5150892;27;38973;-79
2023/06/14 07:35:08;;;;;;;5.33;4.43;;;;;;;24.72;37.04;98772.16;5151941;27;42688;-78
2023/06/14 07:37:36;;;;;;;5.97;4.53;;;;;;;25.26;35.37;98794.31;5133906;27;43372;-78
2023/06/14 07:40:06;;;;;;;6.50;4.90;;;;;;;25.59;35.38;98785.72;5151099;27;42321;-84
2023/06/14 07:42:36;;;;;;;5.23;4.40;;;;;;;25.77;34.24;98797.81;5150854;27;38518;-83
2023/06/14 07:45:03;;;;;;;4.83;4.17;;;;;;;25.96;34.20;98796.31;5134226;27;40797;-79
2023/06/14 07:47:33;;;;;;;5.93;4.80;;;;;;;25.96;34.50;98798.19;5133822;27;42229;-80
2023/06/14 07:50:02;;;;;;;5.73;4.73;;;;;;;26.03;33.69;98802.63;5150779;27;41288;-77
2023/06/14 07:52:30;;;;;;;6.07;4.50;;;;;;;26.59;33.19;98786.34;5151212;27;40939;-77
2023/06/14 07:54:58;;;;;;;4.37;3.97;;;;;;;27.78;31.57;98804.03;5150980;27;42087;-77
2023/06/14 07:57:25;;;;;;;6.43;4.70;;;;;;;28.79;30.28;98829.22;5134022;27;42923;-75
2023/06/14 07:59:53;;;;;;;4.50;4.10;;;;;;;29.89;29.60;98821.81;5152339;27;42327;-82
2023/06/14 08:02:21;;;;;;;4.90;4.40;;;;;;;30.84;28.01;98823.31;5151623;27;39779;-78
2023/06/14 08:04:51;;;;;;;4.83;4.43;;;;;;;31.98;26.83;98832.63;5130419;27;41923;-78
2023/06/14 08:07:18;;;;;;;5.03;4.60;;;;;;;33.05;25.67;98825.94;5151529;27;43733;-83
2023/06/14 08:09:46;;;;;;;4.60;4.20;;;;;;;34.28;24.02;98846.50;5150702;27;41841;-81
2023/06/14 08:12:14;;;;;;;5.80;4.10;;;;;;;35.08;22.97;98857.16;5155097;27;40926;-75
2023/06/14 08:14:43;;;;;;;4.77;4.33;;;;;;;35.89;22.00;98866.44;5152334;27;42732;-77
2023/06/14 08:17:13;;;;;;;5.80;4.67;;;;;;;36.46;21.23;98862.34;5154545;27;42215;-77
2023/06/14 08:19:41;;;;;;;6.10;4.40;;;;;;;36.76;20.54;98875.53;5135658;27;41567;-79
2023/06/14 08:22:11;;;;;;;6.13;4.40;;;;;;;37.26;20.33;98878.66;5153951;27;39828;-81
2023/06/14 08:24:39;;;;;;;5.80;4.53;;;;;;;37.43;20.20;98878.47;5154892;27;41995;-82
2023/06/14 08:27:07;;;;;;;4.65;4.25;;;;;;;37.59;20.47;98871.03;5136045;27;42166;-77
2023/06/14 08:29:35;;;;;;;6.93;4.43;;;;;;;37.40;20.12;98870.72;5152756;27;42565;-82
2023/06/14 08:32:03;;;;;;;4.53;4.22;;;;;;;37.21;20.52;98867.59;5154424;27;40938;-79
2023/06/14 08:34:31;;;;;;;7.88;4.63;;;;;;;37.02;20.86;98872.69;5153642;27;41737;-77
2023/06/14 08:36:59;;;;;;;4.47;4.07;;;;;;;36.50;20.99;98864.28;5153883;27;41708;-77
2023/06/14 08:39:28;;;;;;;4.80;4.40;;;;;;;36.27;22.19;98853.59;5153558;27;42926;-81
2023/06/14 08:41:57;;;;;;;5.13;3.80;;;;;;;36.07;22.15;98847.88;5137231;27;41649;-82
2023/06/14 08:44:25;;;;;;;4.40;4.00;;;;;;;35.70;22.13;98837.56;5155246;27;41733;-78
2023/06/14 08:46:56;;;;;;;5.05;4.65;;;;;;;34.95;22.07;98796.97;5153963;27;42199;-79
2023/06/14 08:49:26;;;;;;;4.53;4.13;;;;;;;34.73;22.36;98849.19;5152968;27;43166;-77
2023/06/14 08:51:58;;;;;;;4.67;4.27;;;;;;;34.40;23.16;98844.53;5154528;27;40354;-77
2023/06/14 08:54:29;;;;;;;5.30;4.73;;;;;;;34.06;23.20;98840.06;5149952;27;42711;-79
2023/06/14 08:56:58;;;;;;;5.17;4.20;;;;;;;33.84;24.11;98831.69;5152997;27;42867;-79
2023/06/14 08:59:27;;;;;;;4.57;4.20;;;;;;;33.47;23.94;98829.31;5153044;27;42211;-79
2023/06/14 09:01:57;;;;;;;5.30;3.90;;;;;;;33.25;23.94;98846.72;5153176;27;40384;-78
2023/06/14 09:04:29;;;;;;;5.00;4.23;;;;;;;32.55;23.79;98852.16;5152488;27;41942;-78
2023/06/14 09:06:58;;;;;;;4.97;3.77;;;;;;;32.33;24.03;98843.69;5135693;27;41552;-81
2023/06/14 09:09:25;;;;;;;4.73;3.63;;;;;;;32.62;23.47;98850.16;5153716;27;42410;-78
2023/06/14 09:11:55;;;;;;;4.13;3.73;;;;;;;32.56;23.87;98848.34;5135681;27;40159;-79
2023/06/14 09:14:25;;;;;;;5.13;3.50;;;;;;;32.70;24.59;98841.56;5152624;27;41965;-79
2023/06/14 09:16:54;;;;;;;3.90;3.47;;;;;;;32.84;23.74;98832.06;5152451;27;42199;-83
2023/06/14 09:19:25;;;;;;;4.73;4.33;;;;;;;33.32;23.42;98836.41;5135578;27;42368;-83
2023/06/14 09:21:55;;;;;;;4.00;3.70;;;;;;;33.70;22.45;98855.84;5152533;27;40193;-79
2023/06/14 09:24:26;;;;;;;5.47;3.97;;;;;;;33.80;22.83;98852.50;5152168;27;40797;-79
2023/06/14 09:26:55;;;;;;;4.50;4.10;;;;;;;34.12;22.33;98852.81;5152622;27;41941;-80
2023/06/14 09:29:23;;;;;;;6.77;4.10;;;;;;;34.25;21.75;98857.97;5135043;27;42051;-87
2023/06/14 09:31:50;;;;;;;4.23;3.87;;;;;;;34.26;21.95;98870.66;5135103;27;41009;-80
2023/06/14 09:34:23;;;;;;;4.17;3.77;;;;;;;34.66;21.33;98869.69;5152947;27;41475;-86
2023/06/14 09:36:51;;;;;;;4.20;3.50;;;;;;;35.25;20.95;98874.47;5136252;27;41744;-78
2023/06/14 09:39:19;;;;;;;5.07;3.63;;;;;;;34.22;21.83;98875.00;5152359;27;42287;-79
2023/06/14 09:41:47;;;;;;;4.10;3.80;;;;;;;34.94;21.09;98877.88;5152582;27;38507;-81
2023/06/14 09:44:17;;;;;;;3.90;3.60;;;;;;;36.31;20.14;98874.06;5153379;27;40463;-79
2023/06/14 09:46:45;;;;;;;3.80;3.50;;;;;;;37.53;19.54;98844.50;5118747;27;41637;-78
2023/06/14 09:49:13;;;;;;;3.90;3.50;;;;;;;37.22;19.00;98893.25;5151641;27;42249;-77
2023/06/14 09:51:45;;;;;;;6.32;3.40;;;;;;;38.06;18.96;98857.94;5152065;27;40103;-77
2023/06/14 09:54:16;;;;;;;3.72;3.33;;;;;;;38.59;18.23;98886.22;5117919;27;40612;-80
2023/06/14 09:56:57;;;;;;;3.67;3.38;;;;;;;36.77;19.18;98852.38;5151247;27;42547;-76
2023/06/14 09:59:31;;;;;;;3.80;3.50;;;;;;;35.29;20.05;98875.63;5149064;27;42232;-77
2023/06/14 10:02:02;;;;;;;4.50;3.47;;;;;;;34.15;21.27;98864.13;5133988;27;40006;-82
2023/06/14 10:04:32;;;;;;;7.23;3.70;;;;;;;33.32;22.15;98852.88;5134091;27;42100;-82
2023/06/14 10:07:02;;;;;;;3.70;3.40;;;;;;;33.78;22.19;98862.88;5133925;27;43082;-82
2023/06/14 10:09:31;;;;;;;3.73;3.30;;;;;;;33.80;21.74;98861.56;5150970;27;42378;-79
2023/06/14 10:12:00;;;;;;;5.33;3.63;;;;;;;33.10;22.04;98872.72;5134431;27;39492;-87
2023/06/14 10:14:31;;;;;;;4.20;3.50;;;;;;;32.31;22.67;98862.28;5151247;27;40752;-81
2023/06/14 10:17:06;;;;;;;3.83;3.17;;;;;;;31.56;23.34;98862.69;5151796;27;42749;-81
2023/06/14 10:19:41;;;;;;;4.27;3.30;;;;;;;30.93;24.47;98816.47;5151340;27;41529;-82
2023/06/14 10:22:13;;;;;;;4.87;3.53;;;;;;;30.83;25.13;98838.06;5151848;27;41319;-79
2023/06/14 10:24:43;;;;;;;3.67;3.30;;;;;;;30.86;24.92;98847.72;5147694;27;41823;-80
2023/06/14 10:27:14;;;;;;;3.67;3.40;;;;;;;31.32;24.59;98849.94;5151837;27;42345;-81
2023/06/14 10:30:11;;;;;;;4.33;3.27;;;;;;;31.40;23.91;98846.91;5151350;27;42097;-85
2023/06/14 10:33:06;;;;;;;5.77;3.47;;;;;;;31.43;23.99;98854.63;5149468;27;40543;-79
2023/06/14 10:35:34;;;;;;;4.40;2.97;;;;;;;31.50;24.50;98847.19;5151157;27;40540;-79
2023/06/14 10:38:09;;;;;;;4.17;3.10;;;;;;;32.35;23.39;98858.00;5133850;27;41874;-76
2023/06/14 10:40:38;;;;;;;3.73;3.37;;;;;;;32.98;24.08;98849.94;5148644;27;43162;-78
2023/06/14 10:43:25;;;;;;;3.67;3.37;;;;;;;32.84;23.77;98840.28;5152599;27;39049;-77
2023/06/14 10:46:30;;;;;;;4.23;3.50;;;;;;;32.81;23.23;98846.25;5151442;27;40686;-76
2023/06/14 10:48:58;;;;;;;3.80;3.37;;;;;;;33.15;22.94;98852.75;5150359;27;42864;-76
2023/06/14 10:51:31;;;;;;;4.50;3.20;;;;;;;33.64;23.94;98834.00;5151068;27;41312;-77
2023/06/14 10:54:00;;;;;;;3.37;2.87;;;;;;;33.25;23.35;98841.22;5135209;27;20941;-78
2023/06/14 10:56:30;;;;;;;3.40;3.00;;;;;;;32.90;23.12;98828.34;5150858;27;40807;-77
2023/06/14 10:58:58;;;;;;;3.30;2.80;;;;;;;32.58;22.88;98841.56;5115142;27;41901;-75
2023/06/14 11:01:38;;;;;;;3.63;3.33;;;;;;;32.31;23.16;98849.41;5149793;27;41764;-76
2023/06/14 11:04:10;;;;;;;3.97;3.33;;;;;;;32.17;23.79;98825.16;5146758;27;40685;-76
2023/06/14 11:06:48;;;;;;;3.50;3.00;;;;;;;32.32;22.89;98859.31;5132704;27;41811;-76
2023/06/14 11:09:48;;;;;;;3.87;3.57;;;;;;;32.65;22.64;98857.88;5150530;27;41915;-78
2023/06/14 11:12:18;;;;;;;4.03;3.63;;;;;;;32.48;22.38;98831.19;5150230;27;42088;-83
2023/06/14 11:14:47;;;;;;;3.50;3.20;;;;;;;32.94;23.14;98851.47;5150572;27;41006;-82
2023/06/14 11:17:16;;;;;;;3.60;3.30;;;;;;;33.26;23.26;98838.19;5150832;27;41678;-80
2023/06/14 11:19:45;;;;;;;5.40;3.27;;;;;;;33.42;23.73;98822.88;5132874;27;42945;-77
2023/06/14 11:22:14;;;;;;;4.83;3.13;;;;;;;33.71;24.09;98824.56;5132925;27;42152;-76
2023/06/14 11:24:43;;;;;;;3.50;3.20;;;;;;;33.89;21.65;98854.59;5149318;27;40859;-77
2023/06/14 11:27:12;;;;;;;3.50;2.90;;;;;;;33.99;22.21;98847.63;5149887;27;42547;-80
2023/06/14 11:29:48;;;;;;;3.57;3.27;;;;;;;34.00;22.40;98832.81;5149759;27;42705;-81
2023/06/14 11:32:17;;;;;;;3.40;2.90;;;;;;;33.91;22.25;98837.03;5133359;27;41577;-82
2023/06/14 11:34:47;;;;;;;5.40;2.87;;;;;;;34.23;22.47;98824.44;5134271;27;40250;-80
2023/06/14 11:37:15;;;;;;;3.43;2.77;;;;;;;34.84;21.50;98840.03;5150940;27;41458;-81
2023/06/14 11:39:45;;;;;;;3.20;3.00;;;;;;;35.10;20.82;98843.97;5133590;27;41855;-80
2023/06/14 11:42:15;;;;;;;2.80;2.60;;;;;;;35.01;19.71;98858.41;5151302;27;42135;-81
2023/06/14 11:44:42;;;;;;;2.90;2.70;;;;;;;34.52;20.19;98839.75;5153216;27;39060;-83
2023/06/14 11:47:11;;;;;;;3.00;2.73;;;;;;;34.25;20.39;98830.47;5155247;27;40992;-87
2023/06/14 11:49:41;;;;;;;2.93;2.73;;;;;;;34.45;21.11;98841.88;5136925;27;41983;-79
2023/06/14 11:52:09;;;;;;;3.37;3.00;;;;;;;35.09;20.49;98830.44;5156075;27;42405;-80